createdAt,value
2023-05-05T00:00:21.758Z,3.60
2023-05-05T00:02:50.988Z,2.80
2023-05-05T00:05:19.014Z,3.30
2023-05-05T00:07:46.872Z,3.40
2023-05-05T00:10:15.040Z,2.93
2023-05-05T00:12:42.923Z,3.00
2023-05-05T00:15:11.218Z,3.30
2023-05-05T00:17:39.412Z,3.40
2023-05-05T00:20:10.619Z,2.90
2023-05-05T00:22:38.531Z,3.57
2023-05-05T00:25:07.493Z,3.27
2023-05-05T00:27:35.375Z,3.03
2023-05-05T00:30:03.583Z,3.33
2023-05-05T00:32:31.685Z,3.43
2023-05-05T00:35:00.613Z,3.63
2023-05-05T00:37:29.816Z,3.17
2023-05-05T00:39:57.750Z,3.30
2023-05-05T00:42:25.718Z,3.50
2023-05-05T00:44:54.724Z,3.60
2023-05-05T00:47:22.728Z,3.83
2023-05-05T00:49:51.956Z,3.23
2023-05-05T00:52:20.207Z,3.53
2023-05-05T00:54:49.608Z,4.17
2023-05-05T00:57:18.297Z,3.57
2023-05-05T00:59:47.484Z,3.40
2023-05-05T01:02:15.376Z,3.90
2023-05-05T01:04:43.462Z,3.60
2023-05-05T01:07:28.204Z,4.00
2023-05-05T01:10:19.102Z,4.50
2023-05-05T01:13:03.351Z,4.27
2023-05-05T01:15:37.413Z,3.90
2023-05-05T01:18:15.383Z,3.87
2023-05-05T01:20:54.228Z,4.30
2023-05-05T01:23:57.745Z,4.00
2023-05-05T01:26:59.137Z,3.70
2023-05-05T01:29:56.411Z,4.30
2023-05-05T01:32:30.707Z,3.80
2023-05-05T01:35:05.229Z,3.77
2023-05-05T01:37:44.295Z,4.20
2023-05-05T01:40:16.683Z,4.27
2023-05-05T01:42:47.177Z,4.20
2023-05-05T01:45:18.802Z,4.00
2023-05-05T01:47:50.019Z,4.00
2023-05-05T01:50:21.099Z,4.50
2023-05-05T01:52:51.320Z,5.37
2023-05-05T01:55:23.229Z,4.73
2023-05-05T01:57:52.174Z,4.60
2023-05-05T02:00:21.904Z,4.77
2023-05-05T02:02:52.704Z,4.03
2023-05-05T02:05:22.881Z,4.70
2023-05-05T02:07:54.310Z,4.53
2023-05-05T02:10:23.062Z,4.00
2023-05-05T02:12:54.122Z,5.37
2023-05-05T02:15:24.509Z,4.20
2023-05-05T02:17:58.034Z,3.87
2023-05-05T02:20:29.053Z,3.80
2023-05-05T02:22:57.195Z,4.03
2023-05-05T02:25:32.312Z,4.17
2023-05-05T02:28:04.713Z,4.20
2023-05-05T02:30:37.413Z,4.63
2023-05-05T02:33:12.219Z,5.07
2023-05-05T02:35:42.980Z,4.53
2023-05-05T02:38:20.452Z,4.77
2023-05-05T02:40:55.810Z,4.63
2023-05-05T02:43:26.578Z,4.77
2023-05-05T02:45:54.760Z,5.10
2023-05-05T02:48:24.865Z,4.97
2023-05-05T02:50:54.276Z,5.37
2023-05-05T02:53:31.129Z,5.43
2023-05-05T02:56:11.417Z,6.03
2023-05-05T02:58:54.404Z,5.60
2023-05-05T03:01:37.316Z,6.10
2023-05-05T03:04:16.133Z,5.10
2023-05-05T03:06:57.050Z,4.37
2023-05-05T03:09:37.808Z,4.80
2023-05-05T03:12:11.414Z,4.97
2023-05-05T03:14:55.051Z,4.97
2023-05-05T03:17:26.464Z,5.17
2023-05-05T03:19:57.206Z,4.83
2023-05-05T03:22:27.586Z,4.87
2023-05-05T03:24:55.763Z,4.60
2023-05-05T03:27:25.490Z,4.70
2023-05-05T03:29:53.511Z,5.00
2023-05-05T03:32:23.631Z,4.67
2023-05-05T03:34:56.498Z,5.10
2023-05-05T03:37:30.335Z,4.43
2023-05-05T03:39:59.078Z,5.03
2023-05-05T03:42:27.065Z,5.37
2023-05-05T03:44:55.138Z,5.37
2023-05-05T03:47:24.731Z,5.60
2023-05-05T03:49:53.445Z,4.83
2023-05-05T03:52:25.531Z,5.27
2023-05-05T03:54:54.203Z,4.87
2023-05-05T03:57:22.092Z,5.53
2023-05-05T03:59:49.989Z,5.90
2023-05-05T04:02:18.896Z,6.57
2023-05-05T04:04:47.841Z,6.60
2023-05-05T04:07:15.980Z,6.43
2023-05-05T04:09:46.230Z,5.97
2023-05-05T04:12:16.938Z,6.70
2023-05-05T04:14:44.986Z,6.70
2023-05-05T04:17:12.871Z,6.67
2023-05-05T04:19:41.299Z,6.07
2023-05-05T04:22:10.449Z,5.57
2023-05-05T04:24:38.739Z,6.67
2023-05-05T04:27:07.940Z,6.57
2023-05-05T04:29:36.091Z,5.80
2023-05-05T04:32:04.585Z,6.07
2023-05-05T04:34:32.822Z,5.23
2023-05-05T04:37:01.146Z,5.07
2023-05-05T04:39:31.350Z,4.83
2023-05-05T04:41:59.941Z,4.80
2023-05-05T04:44:29.440Z,5.53
2023-05-05T04:46:57.876Z,6.17
2023-05-05T04:49:25.866Z,6.27
2023-05-05T04:51:53.870Z,5.73
2023-05-05T04:54:22.659Z,6.10
2023-05-05T04:56:51.595Z,6.50
2023-05-05T04:59:19.562Z,7.87
2023-05-05T05:01:49.005Z,5.93
2023-05-05T05:04:18.535Z,6.03
2023-05-05T05:06:46.922Z,6.00
2023-05-05T05:09:14.984Z,6.37
2023-05-05T05:11:43.280Z,6.33
2023-05-05T05:14:11.149Z,6.00
2023-05-05T05:16:39.341Z,5.63
2023-05-05T05:19:08.703Z,6.07
2023-05-05T05:21:37.083Z,6.13
2023-05-05T05:24:05.462Z,6.10
2023-05-05T05:26:33.661Z,6.13
2023-05-05T05:29:01.629Z,6.17
2023-05-05T05:31:29.672Z,6.13
2023-05-05T05:33:57.593Z,6.23
2023-05-05T05:36:27.046Z,6.23
2023-05-05T05:38:55.465Z,6.00
2023-05-05T05:41:23.508Z,6.20
2023-05-05T05:43:51.696Z,6.43
2023-05-05T05:46:21.730Z,6.13
2023-05-05T05:48:50.011Z,6.10
2023-05-05T05:51:18.721Z,5.93
2023-05-05T05:53:49.269Z,6.27
2023-05-05T05:56:17.595Z,6.33
2023-05-05T05:58:48.460Z,6.70
2023-05-05T06:01:16.919Z,6.37
2023-05-05T06:03:45.636Z,6.83
2023-05-05T06:06:14.022Z,6.60
2023-05-05T06:08:42.173Z,6.17
2023-05-05T06:11:11.414Z,6.07
2023-05-05T06:13:39.299Z,5.50
2023-05-05T06:16:08.709Z,5.60
2023-05-05T06:18:37.676Z,6.27
2023-05-05T06:21:06.135Z,5.40
2023-05-05T06:23:34.073Z,5.43
2023-05-05T06:26:05.898Z,5.83
2023-05-05T06:28:35.112Z,5.83
2023-05-05T06:31:03.139Z,5.90
2023-05-05T06:33:31.032Z,6.00
2023-05-05T06:35:58.907Z,5.90
2023-05-05T06:38:26.817Z,6.30
2023-05-05T06:40:54.688Z,5.50
2023-05-05T06:43:22.561Z,5.97
2023-05-05T06:45:57.194Z,5.80
2023-05-05T06:48:25.541Z,5.87
2023-05-05T06:50:53.427Z,6.23
2023-05-05T06:53:21.588Z,6.27
2023-05-05T06:55:49.543Z,6.13
2023-05-05T06:58:17.483Z,5.47
2023-05-05T07:00:45.517Z,6.10
2023-05-05T07:03:15.127Z,6.40
2023-05-05T07:05:43.296Z,5.63
2023-05-05T07:08:11.339Z,5.80
2023-05-05T07:10:39.326Z,6.13
2023-05-05T07:13:08.126Z,5.50
2023-05-05T07:15:36.337Z,6.80
2023-05-05T07:18:04.520Z,5.90
2023-05-05T07:20:33.795Z,6.50
2023-05-05T07:23:01.783Z,6.00
2023-05-05T07:25:29.815Z,5.70
2023-05-05T07:27:58.093Z,5.97
2023-05-05T07:30:26.628Z,5.60
2023-05-05T07:32:55.038Z,6.03
2023-05-05T07:35:23.679Z,6.07
2023-05-05T07:37:52.962Z,6.27
2023-05-05T07:40:20.979Z,6.77
2023-05-05T07:42:51.779Z,7.10
2023-05-05T07:45:19.918Z,6.60
2023-05-05T07:47:47.879Z,6.57
2023-05-05T07:50:16.165Z,6.60
2023-05-05T07:52:49.621Z,6.63
2023-05-05T07:55:23.181Z,6.60
2023-05-05T07:57:51.250Z,6.80
2023-05-05T08:00:20.338Z,6.80
2023-05-05T08:02:48.783Z,6.87
2023-05-05T08:05:16.849Z,7.10
2023-05-05T08:07:44.794Z,7.20
2023-05-05T08:10:13.340Z,7.07
2023-05-05T08:12:42.664Z,7.03
2023-05-05T08:15:11.608Z,7.57
2023-05-05T08:17:48.074Z,7.97
2023-05-05T08:20:16.853Z,7.73
2023-05-05T08:22:45.318Z,7.50
2023-05-05T08:25:14.633Z,7.77
2023-05-05T08:27:44.379Z,7.70
2023-05-05T08:30:13.662Z,7.23
2023-05-05T08:32:41.694Z,7.27
2023-05-05T08:35:11.809Z,7.67
2023-05-05T08:37:40.118Z,8.27
2023-05-05T08:40:11.979Z,7.77
2023-05-05T08:42:39.932Z,7.57
2023-05-05T08:45:11.781Z,8.07
2023-05-05T08:47:40.524Z,8.00
2023-05-05T08:50:12.555Z,8.80
2023-05-05T08:52:44.498Z,8.40
2023-05-05T08:55:24.180Z,7.97
2023-05-05T08:57:57.685Z,8.47
2023-05-05T09:00:28.623Z,7.63
2023-05-05T09:02:59.829Z,8.07
2023-05-05T09:05:30.290Z,8.73
2023-05-05T09:07:58.549Z,7.73
2023-05-05T09:10:28.983Z,8.47
2023-05-05T09:12:57.701Z,7.83
2023-05-05T09:15:28.396Z,7.77
2023-05-05T09:17:58.696Z,8.27
2023-05-05T09:20:35.539Z,7.80
2023-05-05T09:23:11.019Z,8.30
2023-05-05T09:25:39.440Z,8.77
2023-05-05T09:28:12.333Z,8.53
2023-05-05T09:30:43.499Z,8.23
2023-05-05T09:33:12.393Z,8.57
2023-05-05T09:35:53.101Z,8.60
2023-05-05T09:38:23.347Z,8.30
2023-05-05T09:40:55.245Z,8.17
2023-05-05T09:43:24.791Z,7.87
2023-05-05T09:46:08.496Z,8.27
2023-05-05T09:48:37.370Z,8.17
2023-05-05T09:51:05.918Z,8.07
2023-05-05T09:53:41.499Z,8.07
2023-05-05T09:56:10.313Z,7.60
2023-05-05T09:58:38.670Z,9.33
2023-05-05T10:01:24.247Z,7.07
2023-05-05T10:03:53.104Z,7.23
2023-05-05T10:06:22.021Z,7.13
2023-05-05T10:09:02.457Z,7.00
2023-05-05T10:11:31.089Z,6.87
2023-05-05T10:13:59.337Z,6.90
2023-05-05T10:16:31.154Z,6.97
2023-05-05T10:19:04.187Z,7.17
2023-05-05T10:21:42.041Z,6.77
2023-05-05T10:24:22.889Z,6.70
2023-05-05T10:26:52.960Z,6.53
2023-05-05T10:29:34.349Z,6.90
2023-05-05T10:32:40.813Z,6.30
2023-05-05T10:35:04.804Z,6.97
2023-05-05T10:37:33.792Z,6.47
2023-05-05T10:40:03.522Z,7.10
2023-05-05T10:42:32.362Z,7.37
2023-05-05T10:45:00.328Z,6.93
2023-05-05T10:47:30.660Z,6.60
2023-05-05T10:50:08.093Z,6.60
2023-05-05T10:52:45.786Z,7.27
2023-05-05T10:55:19.338Z,7.03
2023-05-05T10:57:52.813Z,7.07
2023-05-05T11:00:52.220Z,6.63
2023-05-05T11:03:24.230Z,7.27
2023-05-05T11:06:13.598Z,6.13
2023-05-05T11:08:44.320Z,6.53
2023-05-05T11:11:13.969Z,6.17
2023-05-05T11:13:42.537Z,6.07
2023-05-05T11:16:48.000Z,6.43
2023-05-05T11:19:48.520Z,6.47
2023-05-05T11:22:17.502Z,6.53
2023-05-05T11:24:45.708Z,6.10
2023-05-05T11:27:13.680Z,5.90
2023-05-05T11:30:11.701Z,6.43
2023-05-05T11:32:39.834Z,5.77
2023-05-05T11:35:09.461Z,5.90
2023-05-05T11:37:39.437Z,5.57
2023-05-05T11:40:21.839Z,5.87
2023-05-05T11:42:50.176Z,5.63
2023-05-05T11:45:24.071Z,5.80
2023-05-05T11:47:52.469Z,5.77
2023-05-05T11:50:23.333Z,6.00
2023-05-05T11:52:51.667Z,6.33
2023-05-05T11:55:23.860Z,6.87
2023-05-05T11:57:52.358Z,6.97
2023-05-05T12:00:21.101Z,7.17
2023-05-05T12:02:57.977Z,7.03
2023-05-05T12:05:27.838Z,6.93
2023-05-05T12:07:59.559Z,7.17
2023-05-05T12:10:28.531Z,6.70
2023-05-05T12:12:56.564Z,6.87
2023-05-05T12:15:33.289Z,6.80
2023-05-05T12:18:03.041Z,7.07
2023-05-05T12:20:35.063Z,7.53
2023-05-05T12:23:04.584Z,7.30
2023-05-05T12:25:38.289Z,7.20
2023-05-05T12:28:08.245Z,7.00
2023-05-05T12:30:37.056Z,6.87
2023-05-05T12:33:07.000Z,7.00
2023-05-05T12:35:37.027Z,6.63
2023-05-05T12:38:05.763Z,6.50
2023-05-05T12:40:52.835Z,6.10
2023-05-05T12:43:30.077Z,6.37
2023-05-05T12:46:07.984Z,6.30
2023-05-05T12:48:38.535Z,6.47
2023-05-05T12:51:20.798Z,6.60
2023-05-05T12:54:01.563Z,7.00
2023-05-05T12:56:40.498Z,6.47
2023-05-05T12:59:10.726Z,6.87
2023-05-05T13:01:50.985Z,6.43
2023-05-05T13:04:21.286Z,6.03
2023-05-05T13:07:09.458Z,6.30
2023-05-05T13:09:37.773Z,6.27
2023-05-05T13:12:08.226Z,6.90
2023-05-05T13:14:36.579Z,7.50
2023-05-05T13:17:04.758Z,6.50
2023-05-05T13:19:32.776Z,7.40
2023-05-05T13:22:02.322Z,6.83
2023-05-05T13:24:46.357Z,6.50
2023-05-05T13:27:18.290Z,6.73
2023-05-05T13:29:46.239Z,6.93
2023-05-05T13:32:14.188Z,6.83
2023-05-05T13:34:42.584Z,6.47
2023-05-05T13:37:11.870Z,6.17
2023-05-05T13:39:39.810Z,6.07
2023-05-05T13:42:08.184Z,5.63
2023-05-05T13:44:36.238Z,5.83
2023-05-05T13:47:05.411Z,5.93
2023-05-05T13:49:33.367Z,5.70
2023-05-05T13:52:01.423Z,5.87
2023-05-05T13:54:30.987Z,6.37
2023-05-05T13:56:59.117Z,5.80
2023-05-05T13:59:27.518Z,6.13
2023-05-05T14:01:55.916Z,5.50
2023-05-05T14:04:23.939Z,5.43
2023-05-05T14:06:53.309Z,6.30
2023-05-05T14:09:21.319Z,5.10
2023-05-05T14:11:50.657Z,5.40
2023-05-05T14:14:19.638Z,5.27
2023-05-05T14:16:50.036Z,5.30
2023-05-05T14:19:18.698Z,5.27
2023-05-05T14:21:46.766Z,5.07
2023-05-05T14:24:14.734Z,5.87
2023-05-05T14:26:42.756Z,5.20
2023-05-05T14:29:12.092Z,4.90
2023-05-05T14:31:40.080Z,5.30
2023-05-05T14:34:08.037Z,4.87
2023-05-05T14:36:36.096Z,4.63
2023-05-05T14:39:04.469Z,4.80
2023-05-05T14:41:32.657Z,5.13
2023-05-05T14:44:00.568Z,5.07
2023-05-05T14:46:31.279Z,4.83
2023-05-05T14:48:59.472Z,4.80
2023-05-05T14:51:27.599Z,6.27
2023-05-05T14:53:55.631Z,4.70
2023-05-05T14:56:24.430Z,4.90
2023-05-05T14:58:52.324Z,5.47
2023-05-05T15:01:20.838Z,4.87
2023-05-05T15:03:50.359Z,5.30
2023-05-05T15:06:18.826Z,3.87
2023-05-05T15:08:46.808Z,4.30
2023-05-05T15:11:14.731Z,3.83
2023-05-05T15:13:42.652Z,3.90
2023-05-05T15:16:10.630Z,3.67
2023-05-05T15:18:38.652Z,3.50
2023-05-05T15:21:08.132Z,3.20
2023-05-05T15:23:36.583Z,3.73
2023-05-05T15:26:04.797Z,4.23
2023-05-05T15:28:32.704Z,4.20
2023-05-05T15:31:02.548Z,3.67
2023-05-05T15:33:31.717Z,3.60
2023-05-05T15:36:00.297Z,4.13
2023-05-05T15:38:31.289Z,3.83
2023-05-05T15:40:59.728Z,3.87
2023-05-05T15:43:27.906Z,4.10
2023-05-05T15:45:55.798Z,4.10
2023-05-05T15:48:23.688Z,4.40
2023-05-05T15:50:51.738Z,4.80
2023-05-05T15:53:19.638Z,4.80
2023-05-05T15:55:48.903Z,3.47
2023-05-05T15:58:16.927Z,4.23
2023-05-05T16:00:44.819Z,3.60
2023-05-05T16:03:13.338Z,3.83
2023-05-05T16:05:41.746Z,4.70
2023-05-05T16:08:10.815Z,4.00
2023-05-05T16:10:38.767Z,3.40
2023-05-05T16:13:08.129Z,5.53
2023-05-05T16:15:36.249Z,3.40
2023-05-05T16:18:04.640Z,3.67
2023-05-05T16:20:32.548Z,4.10
2023-05-05T16:23:00.390Z,5.13
2023-05-05T16:25:28.349Z,4.23
2023-05-05T16:27:57.434Z,3.37
2023-05-05T16:30:26.806Z,3.30
2023-05-05T16:32:54.892Z,3.63
2023-05-05T16:35:23.819Z,3.60
2023-05-05T16:37:52.525Z,3.57
2023-05-05T16:40:20.574Z,3.93
2023-05-05T16:42:48.457Z,3.87
2023-05-05T16:45:16.432Z,3.80
2023-05-05T16:47:45.710Z,4.10
2023-05-05T16:50:13.667Z,3.30
2023-05-05T16:52:41.544Z,3.60
2023-05-05T16:55:10.559Z,3.70
2023-05-05T16:57:38.848Z,4.83
2023-05-05T17:00:09.247Z,4.20
2023-05-05T17:02:37.265Z,4.27
2023-05-05T17:05:07.680Z,4.80
2023-05-05T17:07:35.888Z,5.43
2023-05-05T17:10:04.178Z,6.63
2023-05-05T17:12:32.085Z,6.17
2023-05-05T17:15:00.267Z,6.60
2023-05-05T17:17:28.231Z,6.83
2023-05-05T17:19:56.278Z,6.87
2023-05-05T17:22:25.703Z,6.57
2023-05-05T17:24:53.582Z,7.10
2023-05-05T17:27:21.545Z,7.07
2023-05-05T17:29:49.540Z,7.60
2023-05-05T17:32:17.386Z,7.13
2023-05-05T17:34:45.395Z,6.60
2023-05-05T17:37:13.283Z,5.60
2023-05-05T17:39:43.541Z,6.70
2023-05-05T17:42:11.683Z,6.20
2023-05-05T17:44:39.605Z,6.97
2023-05-05T17:47:08.440Z,6.90
2023-05-05T17:49:36.417Z,6.83
2023-05-05T17:52:04.543Z,7.00
2023-05-05T17:54:32.456Z,9.53
2023-05-05T17:57:02.353Z,7.57
2023-05-05T17:59:32.288Z,7.10
2023-05-05T18:02:00.335Z,7.03
2023-05-05T18:04:28.261Z,7.23
2023-05-05T18:06:56.565Z,9.27
2023-05-05T18:09:24.634Z,8.30
2023-05-05T18:11:53.636Z,7.13
2023-05-05T18:14:23.804Z,6.97
2023-05-05T18:16:52.474Z,6.80
2023-05-05T18:19:22.506Z,7.43
2023-05-05T18:21:52.734Z,7.97
2023-05-05T18:24:21.127Z,7.97
2023-05-05T18:26:50.515Z,8.60
2023-05-05T18:29:18.815Z,8.73
2023-05-05T18:31:51.448Z,9.53
2023-05-05T18:34:20.567Z,11.40
2023-05-05T18:36:52.892Z,12.77
2023-05-05T18:39:21.275Z,15.03
2023-05-05T18:41:49.158Z,15.40
2023-05-05T18:44:17.525Z,16.20
2023-05-05T18:46:46.834Z,17.80
2023-05-05T18:49:16.400Z,17.77
2023-05-05T18:51:44.722Z,19.63
2023-05-05T18:54:12.616Z,19.33
2023-05-05T18:56:40.667Z,18.53
2023-05-05T18:59:08.735Z,19.83
2023-05-05T19:01:37.165Z,18.37
2023-05-05T19:04:12.793Z,18.97
2023-05-05T19:06:49.332Z,18.97
2023-05-05T19:09:18.584Z,18.87
2023-05-05T19:11:46.540Z,18.30
2023-05-05T19:14:14.923Z,18.40
2023-05-05T19:16:42.979Z,18.00
2023-05-05T19:19:11.109Z,18.57
2023-05-05T19:21:40.114Z,17.43
2023-05-05T19:24:10.265Z,16.00
2023-05-05T19:26:38.258Z,17.90
2023-05-05T19:29:06.488Z,17.23
2023-05-05T19:31:34.534Z,18.73
2023-05-05T19:34:05.290Z,18.30
2023-05-05T19:36:34.812Z,19.27
2023-05-05T19:39:05.553Z,18.87
2023-05-05T19:41:35.496Z,20.03
2023-05-05T19:44:03.613Z,19.57
2023-05-05T19:46:31.931Z,20.70
2023-05-05T19:49:00.009Z,19.17
2023-05-05T19:51:28.069Z,19.87
2023-05-05T19:53:56.044Z,19.67
2023-05-05T19:56:23.946Z,17.53
2023-05-05T19:58:57.331Z,19.83
2023-05-05T20:01:25.591Z,18.60
2023-05-05T20:03:56.975Z,18.27
2023-05-05T20:06:25.351Z,18.13
2023-05-05T20:08:54.639Z,18.63
2023-05-05T20:11:23.588Z,18.07
2023-05-05T20:13:51.805Z,20.13
2023-05-05T20:16:22.421Z,17.97
2023-05-05T20:18:50.445Z,19.30
2023-05-05T20:21:19.112Z,20.80
2023-05-05T20:23:48.037Z,18.97
2023-05-05T20:26:16.049Z,21.67
2023-05-05T20:28:45.671Z,22.17
2023-05-05T20:31:15.932Z,21.23
2023-05-05T20:33:45.547Z,23.03
2023-05-05T20:36:13.784Z,25.13
2023-05-05T20:38:41.694Z,25.67
2023-05-05T20:41:09.610Z,24.53
2023-05-05T20:43:37.717Z,26.73
2023-05-05T20:46:05.838Z,26.03
2023-05-05T20:48:33.804Z,24.67
2023-05-05T20:51:05.955Z,25.40
2023-05-05T20:53:34.124Z,25.77
2023-05-05T20:56:02.070Z,25.70
2023-05-05T20:58:31.284Z,25.57
2023-05-05T21:00:59.233Z,26.47
2023-05-05T21:03:27.211Z,25.83
2023-05-05T21:05:55.174Z,25.67
2023-05-05T21:08:24.634Z,28.13
2023-05-05T21:10:52.527Z,27.47
2023-05-05T21:13:20.543Z,27.27
2023-05-05T21:15:51.153Z,28.20
2023-05-05T21:18:19.030Z,26.50
2023-05-05T21:20:46.978Z,26.73
2023-05-05T21:23:14.852Z,24.73
2023-05-05T21:25:44.512Z,25.93
2023-05-05T21:28:12.383Z,25.63
2023-05-05T21:30:40.289Z,26.43
2023-05-05T21:33:08.531Z,27.23
2023-05-05T21:35:36.475Z,25.70
2023-05-05T21:38:04.447Z,25.03
2023-05-05T21:40:32.364Z,25.73
2023-05-05T21:43:01.564Z,26.03
2023-05-05T21:45:29.528Z,25.33
2023-05-05T21:47:57.609Z,25.97
2023-05-05T21:50:27.561Z,25.80
2023-05-05T21:52:56.128Z,27.33
2023-05-05T21:55:24.195Z,27.17
2023-05-05T21:57:52.387Z,27.60
2023-05-05T22:00:22.278Z,26.50
2023-05-05T22:02:50.215Z,26.73
2023-05-05T22:05:18.297Z,27.67
2023-05-05T22:07:46.513Z,27.27
2023-05-05T22:10:14.494Z,27.37
2023-05-05T22:12:42.427Z,24.23
2023-05-05T22:15:11.790Z,23.87
2023-05-05T22:17:41.247Z,24.43
2023-05-05T22:20:10.359Z,22.23
2023-05-05T22:22:38.518Z,25.53
2023-05-05T22:25:08.097Z,25.37
2023-05-05T22:27:36.276Z,23.77
2023-05-05T22:30:05.204Z,22.17
2023-05-05T22:32:33.926Z,22.40
2023-05-05T22:35:03.159Z,21.13
2023-05-05T22:37:31.017Z,21.03
2023-05-05T22:39:58.935Z,21.43
2023-05-05T22:42:27.139Z,22.53
2023-05-05T22:44:55.034Z,23.23
2023-05-05T22:47:23.317Z,23.63
2023-05-05T22:49:51.617Z,22.53
2023-05-05T22:52:21.184Z,22.33
2023-05-05T22:54:49.074Z,22.07
2023-05-05T22:57:16.920Z,23.03
2023-05-05T22:59:44.894Z,22.70
2023-05-05T23:02:12.843Z,21.60
2023-05-05T23:04:41.017Z,22.77
2023-05-05T23:07:09.071Z,20.80
2023-05-05T23:09:38.397Z,21.07
2023-05-05T23:12:06.541Z,20.73
2023-05-05T23:14:34.579Z,21.37
2023-05-05T23:17:02.644Z,22.53
2023-05-05T23:19:32.433Z,25.37
2023-05-05T23:22:00.860Z,26.80
2023-05-05T23:24:29.482Z,27.67
2023-05-05T23:27:02.056Z,29.03
2023-05-05T23:29:30.601Z,29.70
2023-05-05T23:31:59.147Z,29.93
2023-05-05T23:34:27.806Z,31.17
2023-05-05T23:36:55.851Z,33.90
2023-05-05T23:39:23.724Z,32.37
2023-05-05T23:41:51.940Z,33.43
2023-05-05T23:44:21.122Z,33.03
2023-05-05T23:46:49.300Z,33.63
2023-05-05T23:49:17.244Z,35.47
2023-05-05T23:51:45.162Z,34.43
2023-05-05T23:54:13.069Z,32.93
2023-05-05T23:56:42.594Z,33.20
2023-05-05T23:59:10.692Z,32.30
